Time;durP1;ratioP1;P1;durP2;ratioP2;P2;SDS_P1;SDS_P2;PMS_P1;PMS_P2;Temp;Humidity;BMP_temperature;BMP_pressure;BME280_temperature;BME280_humidity;BME280_pressure;Samples;Min_cycle;Max_cycle;Signal;HPM_P1;HPM_P2
2021/07/21 00:00:45;;;;;;;4.97;3.45;;;11.80;99.90;;;;;;5031884;28;20035;-39
2021/07/21 00:03:10;;;;;;;6.43;4.28;;;11.80;99.90;;;;;;5033052;28;20061;-38
2021/07/21 00:05:37;;;;;;;7.55;4.00;;;11.80;99.90;;;;;;5033177;28;20030;-38
2021/07/21 00:08:03;;;;;;;5.65;3.95;;;11.80;99.90;;;;;;5033013;28;20025;-38
2021/07/21 00:10:31;;;;;;;6.90;4.05;;;11.70;99.90;;;;;;5033031;28;20032;-38
2021/07/21 00:15:53;;;;;;;8.65;4.13;;;11.70;99.90;;;;;;5031692;28;20036;-38
2021/07/21 00:20:48;;;;;;;7.72;4.72;;;11.60;99.90;;;;;;5033039;28;20071;-38
2021/07/21 00:23:17;;;;;;;7.53;4.65;;;11.60;99.90;;;;;;5032697;28;20057;-39
2021/07/21 00:25:43;;;;;;;6.47;4.15;;;11.60;99.90;;;;;;5032893;28;20376;-39
2021/07/21 00:28:09;;;;;;;6.13;4.60;;;11.60;99.90;;;;;;5032823;28;20106;-38
2021/07/21 00:30:34;;;;;;;8.32;5.10;;;11.50;99.90;;;;;;5031572;28;20109;-39
2021/07/21 00:33:00;;;;;;;5.57;4.32;;;11.50;99.90;;;;;;5032745;28;20036;-38
2021/07/21 00:35:25;;;;;;;7.15;5.63;;;11.50;99.90;;;;;;5032719;28;20037;-38
2021/07/21 00:37:51;;;;;;;9.00;5.50;;;11.40;99.90;;;;;;5032523;28;20083;-38
2021/07/21 00:40:17;;;;;;;11.43;5.38;;;11.40;99.90;;;;;;5032705;28;20029;-39
2021/07/21 00:42:44;;;;;;;8.55;5.70;;;11.40;99.90;;;;;;5032641;28;20037;-38
2021/07/21 00:45:10;;;;;;;8.75;5.75;;;11.30;99.90;;;;;;5031340;28;20030;-38
2021/07/21 00:47:37;;;;;;;9.85;6.10;;;11.30;99.90;;;;;;5032654;28;20036;-38
2021/07/21 00:50:04;;;;;;;12.05;6.28;;;11.30;99.90;;;;;;5032546;28;20030;-38
2021/07/21 00:52:33;;;;;;;9.55;5.60;;;11.20;99.90;;;;;;5034076;28;20022;-38
2021/07/21 00:54:58;;;;;;;9.30;5.50;;;11.20;99.90;;;;;;5036563;28;20061;-38
2021/07/21 00:57:24;;;;;;;9.70;5.57;;;11.10;99.90;;;;;;5036603;28;20064;-38
2021/07/21 00:59:50;;;;;;;7.95;5.20;;;11.10;99.90;;;;;;5035323;28;20129;-39
2021/07/21 01:02:16;;;;;;;8.50;5.22;;;11.10;99.90;;;;;;5018778;28;20037;-38
2021/07/21 01:04:42;;;;;;;9.45;6.38;;;11.10;99.90;;;;;;5036291;28;20103;-38
2021/07/21 01:07:08;;;;;;;6.97;4.60;;;11.00;99.90;;;;;;5036320;28;20465;-38
2021/07/21 01:09:38;;;;;;;7.60;5.18;;;11.00;99.90;;;;;;5036397;28;20025;-38
2021/07/21 01:12:14;;;;;;;8.43;5.00;;;10.90;99.90;;;;;;5036275;28;20025;-38
2021/07/21 01:14:42;;;;;;;6.88;4.43;;;11.00;99.90;;;;;;5034991;28;20029;-38
2021/07/21 01:17:14;;;;;;;8.30;5.18;;;10.90;99.90;;;;;;5036142;28;20072;-38
2021/07/21 01:20:16;;;;;;;9.60;6.85;;;10.90;99.90;;;;;;5036160;28;20117;-38
2021/07/21 01:22:45;;;;;;;9.02;6.05;;;11.00;99.90;;;;;;5036256;28;20025;-39
2021/07/21 01:25:23;;;;;;;8.75;5.18;;;10.90;99.90;;;;;;5036078;28;20116;-40
2021/07/21 01:27:57;;;;;;;9.50;6.30;;;10.90;99.90;;;;;;5035965;28;20473;-38
2021/07/21 01:30:26;;;;;;;9.98;6.18;;;10.90;99.90;;;;;;5034739;28;20357;-39
2021/07/21 01:32:55;;;;;;;9.10;6.03;;;10.80;99.90;;;;;;5035891;28;20104;-38
2021/07/21 01:35:23;;;;;;;10.50;6.22;;;10.80;99.90;;;;;;5035932;28;20431;-38
2021/07/21 01:37:54;;;;;;;16.40;7.57;;;10.80;99.90;;;;;;5035743;28;20095;-38
2021/07/21 01:40:25;;;;;;;11.15;6.95;;;10.80;99.90;;;;;;5035695;28;20033;-39
2021/07/21 01:42:55;;;;;;;10.05;6.30;;;10.70;99.90;;;;;;5035786;28;20026;-39
2021/07/21 01:45:21;;;;;;;9.00;6.45;;;10.70;99.90;;;;;;5034367;28;20036;-39
2021/07/21 01:47:47;;;;;;;8.85;6.03;;;10.70;99.90;;;;;;5035718;28;20108;-39
2021/07/21 01:50:14;;;;;;;9.15;6.43;;;10.60;99.90;;;;;;5035608;28;20021;-38
2021/07/21 01:52:41;;;;;;;11.68;7.35;;;10.60;99.90;;;;;;5035536;28;20083;-39
2021/07/21 01:55:08;;;;;;;9.85;6.53;;;10.60;99.90;;;;;;5035449;28;20381;-38
2021/07/21 01:57:35;;;;;;;9.07;6.55;;;10.60;99.90;;;;;;5017804;28;20357;-39
2021/07/21 02:00:11;;;;;;;10.60;6.97;;;10.60;99.90;;;;;;5034166;28;20026;-38
2021/07/21 02:02:37;;;;;;;9.30;6.32;;;10.50;99.90;;;;;;5035342;28;20049;-39
2021/07/21 02:05:04;;;;;;;10.52;6.25;;;10.50;99.90;;;;;;5034024;28;20360;-39
2021/07/21 02:07:31;;;;;;;9.80;6.53;;;10.50;99.90;;;;;;5035188;28;20372;-43
2021/07/21 02:09:57;;;;;;;14.68;7.20;;;10.50;99.90;;;;;;5035277;28;20104;-39
2021/07/21 02:12:22;;;;;;;11.43;7.35;;;10.40;99.90;;;;;;5035165;28;20105;-40
2021/07/21 02:14:48;;;;;;;15.40;7.72;;;10.40;99.90;;;;;;5033939;28;20108;-39
2021/07/21 02:17:16;;;;;;;13.73;6.95;;;10.40;99.90;;;;;;5035149;28;20417;-39
2021/07/21 02:19:44;;;;;;;10.23;6.43;;;10.40;99.90;;;;;;5035031;28;20076;-39
2021/07/21 02:22:11;;;;;;;11.35;7.15;;;10.40;99.90;;;;;;5034965;28;20032;-40
2021/07/21 02:24:37;;;;;;;9.57;6.45;;;10.40;99.90;;;;;;5034920;28;20095;-38
2021/07/21 02:27:02;;;;;;;10.93;6.47;;;10.30;99.90;;;;;;5034912;28;20029;-39
2021/07/21 02:29:28;;;;;;;12.00;6.97;;;10.30;99.90;;;;;;5033575;28;20033;-39
2021/07/21 02:32:01;;;;;;;11.25;6.82;;;10.30;99.90;;;;;;5034841;28;20025;-38
2021/07/21 02:34:27;;;;;;;10.13;6.60;;;10.30;99.90;;;;;;5016979;28;20194;-39
2021/07/21 02:36:53;;;;;;;10.48;6.13;;;10.30;99.90;;;;;;5034611;28;20503;-40
2021/07/21 02:39:20;;;;;;;11.40;6.55;;;10.20;99.90;;;;;;5034679;28;20526;-39
2021/07/21 02:41:46;;;;;;;12.75;7.57;;;10.20;99.90;;;;;;5034650;28;20083;-38
2021/07/21 02:44:11;;;;;;;11.20;6.88;;;10.20;99.90;;;;;;5034513;28;20473;-38
2021/07/21 02:46:37;;;;;;;8.77;5.97;;;10.20;99.90;;;;;;5033300;28;20026;-38
2021/07/21 02:49:03;;;;;;;14.45;8.15;;;10.20;99.90;;;;;;5034418;28;20049;-39
2021/07/21 02:51:46;;;;;;;9.82;7.07;;;10.30;99.90;;;;;;5034522;28;20465;-39
2021/07/21 02:54:35;;;;;;;11.93;6.70;;;10.30;99.90;;;;;;5034479;28;20052;-40
2021/07/21 02:57:15;;;;;;;13.90;6.95;;;10.40;99.90;;;;;;5034469;28;20531;-39
2021/07/21 03:00:06;;;;;;;10.95;5.88;;;10.50;99.90;;;;;;5033063;28;20464;-40
2021/07/21 03:02:35;;;;;;;7.65;5.07;;;10.50;99.90;;;;;;5034292;28;20026;-39
2021/07/21 03:05:01;;;;;;;14.40;7.05;;;10.60;99.90;;;;;;5034157;28;20025;-38
2021/07/21 03:07:28;;;;;;;10.05;6.30;;;10.70;99.90;;;;;;5034190;28;20049;-39
2021/07/21 03:09:55;;;;;;;7.80;5.90;;;10.80;99.90;;;;;;5034038;28;20048;-38
2021/07/21 03:12:23;;;;;;;10.23;6.60;;;10.90;99.90;;;;;;5034067;28;20426;-40
2021/07/21 03:14:52;;;;;;;10.43;6.47;;;10.90;99.90;;;;;;5032625;28;20025;-39
2021/07/21 03:17:19;;;;;;;6.75;5.05;;;11.00;99.90;;;;;;5034016;28;20171;-38
2021/07/21 03:19:49;;;;;;;8.88;6.40;;;11.00;99.90;;;;;;5033964;28;20456;-40
2021/07/21 03:22:19;;;;;;;9.93;6.15;;;11.10;99.90;;;;;;5033868;28;20040;-39
2021/07/21 03:24:45;;;;;;;9.10;6.07;;;11.20;99.90;;;;;;5016003;28;20034;-39
2021/07/21 03:27:13;;;;;;;10.27;5.97;;;11.30;99.90;;;;;;5033864;28;20030;-39
2021/07/21 03:29:39;;;;;;;8.05;5.03;;;11.30;99.90;;;;;;5032463;28;20570;-39
2021/07/21 03:32:06;;;;;;;7.35;4.45;;;11.40;99.90;;;;;;5033740;28;20021;-38
2021/07/21 03:34:36;;;;;;;6.25;4.70;;;11.50;99.90;;;;;;5033865;28;20357;-39
2021/07/21 03:37:01;;;;;;;6.57;4.75;;;11.60;99.90;;;;;;5033345;28;20084;-39
2021/07/21 03:39:28;;;;;;;5.47;4.68;;;11.70;99.90;;;;;;5033448;28;20068;-41
2021/07/21 03:41:55;;;;;;;5.68;3.83;;;11.80;99.90;;;;;;5033584;28;20037;-39
2021/07/21 03:44:24;;;;;;;5.45;4.28;;;11.80;99.90;;;;;;5032711;28;20021;-39
2021/07/21 03:46:50;;;;;;;6.10;3.95;;;11.90;99.90;;;;;;5033429;28;20048;-39
2021/07/21 03:49:18;;;;;;;7.78;4.50;;;12.00;99.90;;;;;;5033346;28;20468;-39
2021/07/21 03:51:44;;;;;;;5.70;4.53;;;12.10;99.90;;;;;;5033233;28;20157;-41
2021/07/21 03:54:11;;;;;;;5.97;4.78;;;12.20;99.90;;;;;;5033297;28;20033;-39
2021/07/21 03:56:40;;;;;;;8.00;4.28;;;12.20;99.90;;;;;;5033234;28;20036;-39
2021/07/21 03:59:06;;;;;;;7.28;4.43;;;12.30;99.90;;;;;;5033239;28;20056;-38
2021/07/21 04:01:35;;;;;;;5.13;4.20;;;12.40;99.90;;;;;;5032036;28;20025;-39
2021/07/21 04:04:02;;;;;;;4.68;3.75;;;12.50;99.90;;;;;;5033053;28;20033;-39
2021/07/21 04:06:32;;;;;;;6.93;4.25;;;12.60;99.90;;;;;;5033017;28;20091;-41
2021/07/21 04:09:07;;;;;;;10.02;5.90;;;12.70;99.90;;;;;;5033095;28;20071;-38
2021/07/21 04:11:34;;;;;;;7.32;4.72;;;12.70;99.90;;;;;;5032985;28;20100;-39
2021/07/21 04:14:03;;;;;;;8.23;5.85;;;12.80;99.90;;;;;;5033018;28;20151;-39
2021/07/21 04:16:32;;;;;;;9.00;5.03;;;12.80;99.90;;;;;;5031681;28;20477;-39
2021/07/21 04:18:58;;;;;;;6.20;4.90;;;13.00;99.90;;;;;;5032951;28;20036;-38
2021/07/21 04:21:24;;;;;;;8.35;5.55;;;13.00;99.90;;;;;;5032909;28;20097;-41
2021/07/21 04:23:51;;;;;;;6.30;4.90;;;13.10;99.90;;;;;;5032866;28;20029;-38
2021/07/21 04:26:17;;;;;;;8.80;5.57;;;13.20;99.90;;;;;;5032451;28;20028;-39
2021/07/21 04:28:43;;;;;;;5.68;4.75;;;13.40;99.90;;;;;;5032558;28;20115;-40
2021/07/21 04:31:09;;;;;;;6.10;4.50;;;13.40;99.90;;;;;;5031529;28;20520;-39
2021/07/21 04:33:34;;;;;;;6.47;4.93;;;13.50;99.90;;;;;;5032702;28;20037;-40
2021/07/21 04:36:01;;;;;;;9.35;5.03;;;13.60;99.90;;;;;;5032620;28;20145;-39
2021/07/21 04:38:28;;;;;;;7.55;5.25;;;13.70;99.90;;;;;;5032722;28;20507;-40
2021/07/21 04:40:55;;;;;;;6.45;5.32;;;13.70;99.90;;;;;;5032784;28;20056;-39
2021/07/21 04:43:20;;;;;;;9.00;5.22;;;13.80;99.90;;;;;;5032661;28;20388;-41
2021/07/21 04:45:50;;;;;;;7.57;5.13;;;13.90;99.90;;;;;;5031435;28;20033;-38
2021/07/21 04:48:16;;;;;;;6.95;5.38;;;13.90;99.90;;;;;;5032621;28;20024;-40
2021/07/21 04:50:43;;;;;;;7.30;4.28;;;14.00;99.90;;;;;;5032632;28;20187;-39
2021/07/21 04:53:10;;;;;;;8.95;5.45;;;14.10;99.90;;;;;;5032617;28;20075;-38
2021/07/21 04:55:37;;;;;;;8.07;5.80;;;14.20;99.90;;;;;;5014843;28;20037;-39
2021/07/21 04:58:02;;;;;;;6.22;4.97;;;14.30;99.90;;;;;;5032571;28;20038;-41
2021/07/21 05:00:28;;;;;;;7.18;5.25;;;14.40;99.90;;;;;;5031171;28;20384;-41
2021/07/21 05:02:55;;;;;;;8.23;5.63;;;14.40;99.90;;;;;;5032470;28;20040;-39
2021/07/21 05:05:21;;;;;;;7.40;5.35;;;14.50;99.90;;;;;;5032531;28;20071;-41
2021/07/21 05:07:46;;;;;;;5.93;4.22;;;14.70;99.90;;;;;;5014822;28;20025;-40
2021/07/21 05:10:12;;;;;;;8.75;5.25;;;14.70;99.90;;;;;;5032474;28;20025;-39
2021/07/21 05:12:43;;;;;;;6.10;4.88;;;14.90;99.90;;;;;;5032382;28;20496;-39
2021/07/21 05:15:10;;;;;;;7.75;5.00;;;15.00;99.90;;;;;;5031047;28;20041;-39
2021/07/21 05:17:35;;;;;;;6.80;4.50;;;15.10;99.90;;;;;;5032292;28;20033;-41
2021/07/21 05:20:01;;;;;;;11.15;6.10;;;15.30;99.90;;;;;;5032416;28;20389;-39
2021/07/21 05:22:27;;;;;;;8.75;5.60;;;15.40;99.90;;;;;;5032265;28;20033;-42
2021/07/21 05:24:52;;;;;;;6.20;4.30;;;15.50;99.90;;;;;;5032202;28;20433;-40
2021/07/21 05:27:18;;;;;;;9.93;5.07;;;15.60;99.90;;;;;;5032342;28;20025;-39
2021/07/21 05:29:43;;;;;;;10.02;5.32;;;15.70;99.90;;;;;;5030890;28;20381;-39
2021/07/21 05:32:09;;;;;;;8.10;5.75;;;15.90;99.90;;;;;;5032252;28;20491;-39
2021/07/21 05:34:34;;;;;;;6.82;4.97;;;15.90;99.90;;;;;;5032156;28;20034;-39
2021/07/21 05:37:00;;;;;;;8.02;4.88;;;16.00;99.90;;;;;;5032036;28;20045;-39
2021/07/21 05:39:25;;;;;;;6.18;4.78;;;16.10;99.90;;;;;;5017120;28;20473;-40
2021/07/21 05:41:56;;;;;;;5.80;4.47;;;16.20;99.90;;;;;;5035728;28;20045;-39
2021/07/21 05:44:21;;;;;;;10.40;5.30;;;16.30;99.90;;;;;;5034244;28;20112;-41
2021/07/21 05:46:47;;;;;;;6.90;5.10;;;16.40;99.90;;;;;;5035690;28;20220;-39
2021/07/21 05:49:12;;;;;;;17.88;6.07;;;16.50;99.90;;;;;;5035691;28;20053;-40
2021/07/21 05:51:38;;;;;;;10.93;5.53;;;16.60;99.90;;;;;;5035616;28;20498;-41
2021/07/21 05:54:03;;;;;;;6.75;4.95;;;16.70;99.90;;;;;;5035653;28;20041;-39
2021/07/21 05:56:30;;;;;;;10.40;5.13;;;16.80;99.90;;;;;;5035524;28;20488;-39
2021/07/21 05:58:56;;;;;;;9.07;5.30;;;16.90;99.90;;;;;;5035378;28;20048;-40
2021/07/21 06:01:21;;;;;;;8.75;5.60;;;17.00;99.90;;;;;;5034216;28;20025;-40
2021/07/21 06:03:47;;;;;;;8.80;5.28;;;17.10;99.90;;;;;;5035332;28;20424;-41
2021/07/21 06:06:12;;;;;;;6.15;4.78;;;17.30;99.90;;;;;;5035380;28;20033;-40
2021/07/21 06:08:38;;;;;;;6.07;5.35;;;17.40;99.90;;;;;;5035274;28;20025;-40
2021/07/21 06:11:03;;;;;;;10.27;7.10;;;17.60;99.90;;;;;;5035330;28;20021;-41
2021/07/21 06:13:30;;;;;;;12.07;6.20;;;17.70;99.90;;;;;;5035028;28;20536;-39
2021/07/21 06:15:56;;;;;;;9.38;5.43;;;17.90;99.90;;;;;;5033895;28;20060;-41
2021/07/21 06:18:21;;;;;;;9.77;6.50;;;18.10;99.90;;;;;;5035145;28;20061;-39
2021/07/21 06:20:47;;;;;;;8.27;5.97;;;18.30;99.90;;;;;;5035035;28;20143;-39
2021/07/21 06:23:13;;;;;;;11.68;5.97;;;18.50;99.90;;;;;;5035029;28;20061;-39
2021/07/21 06:25:38;;;;;;;10.93;5.63;;;18.80;99.90;;;;;;5034947;28;20028;-39
2021/07/21 06:28:04;;;;;;;7.63;5.72;;;19.00;99.90;;;;;;5034840;28;20030;-42
2021/07/21 06:30:30;;;;;;;7.05;5.40;;;19.30;99.90;;;;;;5033674;28;20047;-40
2021/07/21 06:32:55;;;;;;;8.07;5.57;;;19.60;99.90;;;;;;5034811;28;20486;-42
2021/07/21 06:35:21;;;;;;;10.45;5.63;;;19.90;99.90;;;;;;5034848;28;20033;-39
2021/07/21 06:37:46;;;;;;;10.18;5.70;;;20.30;99.90;;;;;;5034598;28;20048;-39
2021/07/21 06:40:12;;;;;;;14.93;6.68;;;20.70;99.90;;;;;;5034751;28;20112;-41
2021/07/21 06:42:37;;;;;;;11.68;6.07;;;21.10;99.90;;;;;;5034609;28;20021;-39
2021/07/21 06:45:04;;;;;;;10.38;6.38;;;21.50;99.90;;;;;;5033205;28;20087;-41
2021/07/21 06:47:30;;;;;;;11.63;5.82;;;21.90;99.90;;;;;;5034592;28;20372;-41
2021/07/21 06:49:55;;;;;;;11.13;6.22;;;22.20;99.90;;;;;;5033826;28;20037;-41
2021/07/21 06:52:23;;;;;;;12.20;5.82;;;22.40;99.90;;;;;;5034499;28;20113;-39
2021/07/21 06:54:48;;;;;;;10.13;6.43;;;22.60;99.90;;;;;;5034435;28;20041;-39
2021/07/21 06:57:14;;;;;;;9.90;5.40;;;22.80;99.90;;;;;;5034227;28;20068;-39
2021/07/21 06:59:40;;;;;;;9.40;5.68;;;23.00;99.90;;;;;;5032958;28;20522;-40
2021/07/21 07:02:06;;;;;;;10.43;5.82;;;23.20;99.90;;;;;;5034287;28;20105;-39
2021/07/21 07:04:32;;;;;;;7.93;5.95;;;23.30;99.90;;;;;;5034126;28;20113;-39
2021/07/21 07:06:57;;;;;;;8.75;5.82;;;23.70;99.90;;;;;;5034168;28;20057;-41
2021/07/21 07:09:23;;;;;;;8.32;6.10;;;23.90;99.90;;;;;;5034107;28;20095;-39
2021/07/21 07:11:50;;;;;;;6.38;4.88;;;24.20;99.90;;;;;;5033994;28;20030;-39
2021/07/21 07:14:16;;;;;;;6.70;5.18;;;24.30;99.90;;;;;;5033137;28;20404;-42
2021/07/21 07:16:41;;;;;;;7.57;5.43;;;24.50;99.90;;;;;;5033721;28;20064;-40
2021/07/21 07:19:07;;;;;;;6.22;5.03;;;24.70;99.90;;;;;;5034022;28;20064;-40
2021/07/21 07:21:32;;;;;;;6.65;4.97;;;25.00;99.90;;;;;;5033909;28;20037;-39
2021/07/21 07:23:58;;;;;;;5.70;4.50;;;25.30;99.90;;;;;;5033785;28;20053;-42
2021/07/21 07:26:24;;;;;;;6.22;4.75;;;25.70;99.90;;;;;;5015989;28;20031;-42
2021/07/21 07:28:54;;;;;;;5.80;4.63;;;26.20;99.90;;;;;;5033692;28;20385;-41
2021/07/21 07:31:20;;;;;;;6.28;4.72;;;26.60;99.90;;;;;;5032485;28;20041;-40
2021/07/21 07:33:45;;;;;;;5.68;4.95;;;26.90;99.90;;;;;;5033678;28;20038;-42
2021/07/21 07:36:11;;;;;;;5.50;4.30;;;27.10;99.90;;;;;;5033578;28;20068;-42
2021/07/21 07:38:36;;;;;;;5.97;4.35;;;27.50;99.40;;;;;;5033561;28;20463;-43
2021/07/21 07:41:02;;;;;;;6.50;4.10;;;27.60;98.00;;;;;;5033811;28;20183;-42
2021/07/21 07:43:28;;;;;;;6.00;4.80;;;28.10;97.30;;;;;;5033469;28;20022;-42
2021/07/21 07:45:57;;;;;;;8.25;3.88;;;28.50;94.10;;;;;;5032423;28;20030;-40
2021/07/21 07:48:23;;;;;;;4.90;4.07;;;28.80;92.30;;;;;;5033472;28;20140;-40
2021/07/21 07:50:49;;;;;;;5.20;4.05;;;29.60;90.00;;;;;;5033392;28;20469;-40
2021/07/21 07:53:14;;;;;;;5.90;4.18;;;30.20;86.40;;;;;;5033385;28;20044;-40
2021/07/21 07:55:40;;;;;;;4.78;3.88;;;30.60;83.10;;;;;;5033170;28;20423;-40
2021/07/21 07:58:06;;;;;;;5.72;3.80;;;31.10;79.50;;;;;;5033262;28;20038;-44
2021/07/21 08:00:31;;;;;;;4.85;3.80;;;31.40;76.30;;;;;;5031976;28;20562;-40
2021/07/21 08:02:57;;;;;;;5.10;4.20;;;31.80;72.90;;;;;;5033040;28;20380;-47
2021/07/21 08:05:23;;;;;;;4.65;3.67;;;32.70;67.10;;;;;;5033248;28;20092;-40
2021/07/21 08:07:49;;;;;;;4.97;3.83;;;33.70;61.50;;;;;;5033127;28;20200;-40
2021/07/21 08:10:15;;;;;;;3.53;3.10;;;35.10;54.80;;;;;;5033113;28;20416;-40
2021/07/21 08:12:43;;;;;;;3.47;3.17;;;36.00;51.40;;;;;;5033058;28;20484;-42
2021/07/21 08:15:11;;;;;;;3.72;3.42;;;36.90;47.90;;;;;;5031720;28;20029;-41
2021/07/21 08:17:37;;;;;;;5.15;2.90;;;37.60;45.80;;;;;;5032942;28;20025;-44
2021/07/21 08:20:05;;;;;;;3.78;3.20;;;38.20;43.70;;;;;;5032937;28;20053;-41
2021/07/21 08:22:38;;;;;;;3.33;3.03;;;38.90;40.90;;;;;;5032945;28;20026;-38
2021/07/21 08:25:05;;;;;;;3.95;3.20;;;39.60;38.40;;;;;;5032745;28;20017;-38
2021/07/21 08:27:30;;;;;;;3.97;2.97;;;40.10;36.20;;;;;;5032928;28;20021;-44
2021/07/21 08:29:56;;;;;;;3.85;3.45;;;40.60;34.10;;;;;;5031524;28;20040;-39
2021/07/21 08:32:21;;;;;;;3.20;2.75;;;40.00;32.10;;;;;;5032862;28;20453;-42
2021/07/21 08:34:47;;;;;;;3.35;3.00;;;38.00;33.40;;;;;;5032758;28;20036;-41
2021/07/21 08:37:12;;;;;;;3.63;3.33;;;35.40;34.70;;;;;;5032634;28;20116;-43
2021/07/21 08:39:38;;;;;;;3.28;2.97;;;33.50;37.60;;;;;;5032674;28;20025;-42
2021/07/21 08:42:04;;;;;;;3.60;3.15;;;31.80;39.70;;;;;;5032706;28;20476;-46
2021/07/21 08:44:30;;;;;;;5.50;3.40;;;30.40;41.10;;;;;;5031343;28;20213;-38
2021/07/21 08:46:56;;;;;;;4.32;3.47;;;29.30;43.20;;;;;;5032730;28;20468;-39
2021/07/21 08:49:21;;;;;;;5.43;3.28;;;28.50;44.80;;;;;;5032660;28;20407;-42
2021/07/21 08:51:47;;;;;;;3.47;2.97;;;27.80;46.00;;;;;;5032613;28;20026;-41
2021/07/21 08:54:16;;;;;;;4.20;3.33;;;27.40;46.80;;;;;;5032505;28;20104;-37
2021/07/21 08:56:45;;;;;;;3.33;3.03;;;27.00;47.20;;;;;;5032574;28;20480;-39
2021/07/21 08:59:14;;;;;;;4.47;3.17;;;26.80;47.70;;;;;;5032173;28;20026;-38
2021/07/21 09:01:40;;;;;;;3.58;3.08;;;26.90;47.80;;;;;;5032597;28;20037;-38
2021/07/21 09:04:06;;;;;;;4.00;3.53;;;26.90;47.40;;;;;;5032470;28;20037;-42
2021/07/21 09:06:31;;;;;;;3.63;3.10;;;26.90;47.70;;;;;;5032539;28;20026;-39
2021/07/21 09:08:57;;;;;;;3.80;3.13;;;26.70;48.30;;;;;;5032348;28;20030;-42
2021/07/21 09:11:23;;;;;;;3.67;3.22;;;26.50;49.00;;;;;;5032515;28;20026;-38
2021/07/21 09:13:48;;;;;;;3.90;3.50;;;26.30;49.30;;;;;;5034298;28;20025;-38
2021/07/21 09:16:15;;;;;;;6.40;3.60;;;26.20;49.50;;;;;;5035050;28;20484;-37
2021/07/21 09:18:54;;;;;;;4.18;3.35;;;26.20;49.20;;;;;;5036296;28;20041;-37
2021/07/21 09:21:22;;;;;;;3.70;2.90;;;26.10;47.50;;;;;;5036160;28;20105;-37
2021/07/21 09:23:53;;;;;;;3.80;3.40;;;26.10;47.90;;;;;;5018488;28;20064;-39
2021/07/21 09:26:40;;;;;;;4.18;2.28;;;26.20;47.00;;;;;;5036197;28;20026;-37
2021/07/21 09:29:06;;;;;;;4.05;2.47;;;26.20;45.80;;;;;;5036067;28;20025;-38
2021/07/21 09:31:38;;;;;;;3.65;3.08;;;26.20;47.00;;;;;;5034713;28;20064;-40
2021/07/21 09:34:16;;;;;;;2.70;2.35;;;26.10;47.50;;;;;;5035999;28;20029;-42
2021/07/21 09:36:42;;;;;;;2.78;2.42;;;26.00;48.80;;;;;;5035833;28;20572;-41
2021/07/21 09:39:10;;;;;;;3.67;2.60;;;25.90;49.10;;;;;;5018152;28;20057;-39
2021/07/21 09:41:37;;;;;;;3.55;2.70;;;25.60;49.40;;;;;;5035926;28;20037;-39
2021/07/21 09:44:04;;;;;;;3.92;2.83;;;25.40;50.40;;;;;;5035722;28;20067;-42
2021/07/21 09:46:33;;;;;;;3.08;2.60;;;25.40;51.30;;;;;;5034490;28;20025;-44
2021/07/21 09:48:58;;;;;;;4.15;2.78;;;25.40;51.40;;;;;;5035650;28;20029;-40
2021/07/21 09:51:34;;;;;;;3.95;3.15;;;25.50;51.50;;;;;;5035658;28;20356;-41
2021/07/21 09:54:32;;;;;;;3.38;3.08;;;25.50;51.70;;;;;;5035611;28;20127;-42
2021/07/21 09:57:12;;;;;;;6.13;2.83;;;25.60;51.60;;;;;;5002048;28;20033;-42
2021/07/21 09:59:37;;;;;;;3.25;2.92;;;25.80;51.70;;;;;;5034244;28;20033;-39
2021/07/21 10:02:16;;;;;;;3.30;3.00;;;26.10;51.20;;;;;;5035419;28;20038;-39
2021/07/21 10:04:46;;;;;;;3.22;2.63;;;26.20;50.90;;;;;;5035340;28;20455;-41
2021/07/21 10:07:41;;;;;;;3.17;2.45;;;26.30;50.40;;;;;;5035272;28;20014;-42
2021/07/21 10:10:15;;;;;;;3.50;2.70;;;26.40;50.20;;;;;;5035097;28;20028;-39
2021/07/21 10:12:40;;;;;;;3.58;2.53;;;26.50;48.50;;;;;;5035241;28;20101;-41
2021/07/21 10:15:07;;;;;;;4.20;2.38;;;26.50;49.40;;;;;;5033965;28;20121;-42
2021/07/21 10:17:33;;;;;;;3.58;2.40;;;26.30;50.30;;;;;;5035144;28;20055;-40
2021/07/21 10:19:58;;;;;;;2.90;2.53;;;26.30;49.70;;;;;;5035132;28;20033;-42
2021/07/21 10:22:25;;;;;;;4.40;2.50;;;26.30;49.40;;;;;;5035236;28;20321;-41
2021/07/21 10:24:51;;;;;;;2.72;2.45;;;26.20;48.80;;;;;;5033828;28;20075;-42
2021/07/21 10:27:17;;;;;;;3.30;2.15;;;26.00;49.00;;;;;;5035006;28;20061;-40
2021/07/21 10:29:43;;;;;;;5.00;2.50;;;25.90;50.20;;;;;;5033575;28;20029;-42
2021/07/21 10:32:10;;;;;;;3.45;2.05;;;25.90;50.40;;;;;;5034810;28;20028;-40
2021/07/21 10:34:36;;;;;;;1.85;1.75;;;25.80;50.30;;;;;;5034923;28;20528;-40
2021/07/21 10:37:02;;;;;;;2.90;2.22;;;25.80;50.50;;;;;;5034705;28;20115;-44
2021/07/21 10:39:34;;;;;;;3.35;2.22;;;25.70;51.20;;;;;;5034873;28;20084;-42
2021/07/21 10:42:05;;;;;;;3.70;2.30;;;25.50;51.60;;;;;;5034676;28;20022;-41
2021/07/21 10:44:30;;;;;;;3.95;2.17;;;25.40;51.70;;;;;;5032882;28;20240;-39
2021/07/21 10:46:56;;;;;;;3.20;2.72;;;25.20;52.00;;;;;;5034241;28;20021;-40
2021/07/21 10:49:39;;;;;;;3.05;2.13;;;25.20;53.50;;;;;;5034501;28;20096;-42
2021/07/21 10:54:58;;;;;;;4.38;2.30;;;25.10;52.60;;;;;;5034238;28;20061;-42
2021/07/21 11:00:17;;;;;;;3.33;2.00;;;25.10;50.30;;;;;;5013655;28;20499;-40
2021/07/21 11:02:43;;;;;;;2.95;2.15;;;25.10;49.80;;;;;;5017454;28;20396;-40
2021/07/21 11:05:32;;;;;;;4.53;2.40;;;25.50;50.10;;;;;;5033795;28;20044;-42
2021/07/21 11:08:03;;;;;;;3.75;2.03;;;25.90;47.60;;;;;;5033151;28;20029;-40
2021/07/21 11:10:43;;;;;;;2.78;2.40;;;26.30;47.50;;;;;;5033642;28;20543;-39
2021/07/21 11:13:12;;;;;;;2.72;2.20;;;26.50;46.10;;;;;;5033936;28;20025;-41
2021/07/21 11:15:43;;;;;;;4.00;2.85;;;26.60;46.10;;;;;;5032729;28;20026;-44
2021/07/21 11:18:24;;;;;;;2.85;2.40;;;26.40;44.70;;;;;;5034056;28;20024;-39
2021/07/21 11:21:03;;;;;;;2.95;2.38;;;26.30;45.60;;;;;;5033328;28;20093;-39
2021/07/21 11:23:52;;;;;;;3.50;2.17;;;26.10;46.50;;;;;;5033544;28;20033;-42
2021/07/21 11:26:39;;;;;;;3.67;2.28;;;25.90;46.70;;;;;;5033821;28;20021;-39
2021/07/21 11:29:23;;;;;;;2.70;2.30;;;25.50;47.60;;;;;;5033514;28;20028;-42
2021/07/21 11:31:48;;;;;;;3.92;2.08;;;25.30;48.60;;;;;;5033759;28;20033;-44
2021/07/21 11:34:35;;;;;;;2.88;2.05;;;25.00;49.40;;;;;;5033576;28;20033;-40
2021/07/21 11:37:08;;;;;;;2.35;2.15;;;25.00;50.10;;;;;;5032647;28;20380;-40
2021/07/21 11:39:44;;;;;;;2.55;2.25;;;24.80;50.70;;;;;;5033911;28;20026;-41
2021/07/21 11:42:26;;;;;;;2.53;2.17;;;24.80;51.90;;;;;;5033522;28;20041;-39
2021/07/21 11:45:14;;;;;;;2.72;2.28;;;24.80;51.60;;;;;;5032204;28;20030;-40
2021/07/21 11:47:47;;;;;;;2.83;2.53;;;24.90;52.60;;;;;;5033591;28;20415;-42
2021/07/21 11:50:21;;;;;;;3.20;2.28;;;25.20;51.40;;;;;;5015756;28;20108;-41
2021/07/21 11:52:56;;;;;;;5.10;2.65;;;25.50;51.60;;;;;;5033511;28;20060;-42
2021/07/21 11:55:26;;;;;;;3.47;2.80;;;25.60;51.50;;;;;;5033382;28;20040;-40
2021/07/21 11:57:54;;;;;;;3.40;2.58;;;25.60;51.70;;;;;;5033259;28;20029;-40
2021/07/21 12:00:21;;;;;;;5.13;2.70;;;25.70;51.20;;;;;;5031972;28;20040;-39
2021/07/21 12:02:47;;;;;;;5.90;2.95;;;25.70;51.00;;;;;;5033280;28;20026;-42
2021/07/21 12:05:13;;;;;;;3.88;2.90;;;25.80;50.80;;;;;;5033127;28;20093;-40
2021/07/21 12:07:39;;;;;;;2.40;2.20;;;26.00;50.80;;;;;;5033250;28;20535;-40
2021/07/21 12:10:13;;;;;;;2.92;2.63;;;26.20;50.50;;;;;;5033145;28;20056;-42
2021/07/21 12:12:39;;;;;;;3.13;2.60;;;26.50;49.50;;;;;;5033215;28;20100;-40
2021/07/21 12:15:06;;;;;;;3.30;2.70;;;26.70;49.10;;;;;;5031679;28;20120;-40
2021/07/21 12:17:32;;;;;;;2.83;2.38;;;26.70;48.30;;;;;;5033193;28;20345;-42
2021/07/21 12:20:05;;;;;;;2.55;2.35;;;26.90;48.70;;;;;;5033036;28;20034;-40
2021/07/21 12:22:33;;;;;;;3.72;2.30;;;27.10;48.10;;;;;;5033034;28;20068;-40
2021/07/21 12:25:01;;;;;;;3.70;2.70;;;27.30;47.20;;;;;;5032823;28;20036;-40
2021/07/21 12:27:32;;;;;;;2.55;2.28;;;27.40;46.90;;;;;;5032933;28;20025;-40
2021/07/21 12:29:59;;;;;;;2.85;2.00;;;27.40;46.90;;;;;;5031595;28;20053;-42
2021/07/21 12:32:25;;;;;;;4.85;2.35;;;27.40;46.20;;;;;;5033093;28;20017;-40
2021/07/21 12:34:52;;;;;;;2.55;2.10;;;27.30;46.80;;;;;;5032845;28;20044;-40
2021/07/21 12:37:22;;;;;;;3.70;2.40;;;27.10;47.30;;;;;;5032548;28;20061;-40
2021/07/21 12:39:48;;;;;;;2.75;2.50;;;27.10;47.70;;;;;;5032826;28;20341;-43
2021/07/21 12:42:19;;;;;;;4.68;2.53;;;26.80;47.80;;;;;;5032704;28;20025;-42
2021/07/21 12:44:51;;;;;;;4.63;2.65;;;26.60;47.90;;;;;;5031381;28;20034;-40
2021/07/21 12:47:22;;;;;;;2.75;2.28;;;26.50;48.10;;;;;;5032677;28;20018;-39
2021/07/21 12:50:02;;;;;;;4.03;2.45;;;26.50;48.10;;;;;;5036324;28;20042;-39
2021/07/21 12:52:34;;;;;;;2.90;2.20;;;26.40;48.60;;;;;;5036740;28;20029;-40
2021/07/21 12:55:01;;;;;;;2.10;1.85;;;26.30;48.70;;;;;;5036782;28;20045;-39
2021/07/21 12:57:56;;;;;;;4.70;2.60;;;26.30;49.40;;;;;;5036634;28;20056;-40
2021/07/21 13:00:24;;;;;;;2.42;1.98;;;26.30;50.20;;;;;;5034000;28;20551;-41
2021/07/21 13:03:02;;;;;;;2.30;1.95;;;26.50;50.00;;;;;;5036589;28;20040;-39